Time;durP1;ratioP1;P1;durP2;ratioP2;P2;SDS_P1;SDS_P2;PMS_P1;PMS_P2;Temp;Humidity;BMP_temperature;BMP_pressure;BME280_temperature;BME280_humidity;BME280_pressure;Samples;Min_cycle;Max_cycle;Signal;HPM_P1;HPM_P2
2021/11/12 00:13:06;;;;;;;;;;;13.50;70.60;;;;;;4241547;27;19923;-71
2021/11/12 00:15:11;;;;;;;;;;;13.50;70.60;;;;;;4255095;27;19972;-71
2021/11/12 00:17:14;;;;;;;;;;;13.50;70.50;;;;;;4263568;27;19919;-71
2021/11/12 00:19:18;;;;;;;;;;;13.50;70.50;;;;;;4263570;27;19919;-71
2021/11/12 00:21:21;;;;;;;;;;;13.50;70.50;;;;;;4254600;27;19923;-71
2021/11/12 00:23:24;;;;;;;;;;;13.50;70.50;;;;;;4247051;27;19919;-71
2021/11/12 00:25:27;;;;;;;;;;;13.50;70.50;;;;;;4254975;27;20360;-71
2021/11/12 00:27:30;;;;;;;;;;;13.50;70.70;;;;;;4263077;27;20473;-71
2021/11/12 00:29:49;;;;;;;;;;;13.50;70.50;;;;;;4263695;27;19923;-72
2021/11/12 00:36:50;;;;;;;;;;;13.40;70.40;;;;;;4260597;27;19923;-72
2021/11/12 00:39:02;;;;;;;;;;;13.40;70.40;;;;;;4248943;27;19946;-71
2021/11/12 00:45:33;;;;;;;;;;;13.40;70.30;;;;;;4260909;27;19964;-72
2021/11/12 00:47:45;;;;;;;;;;;13.40;70.40;;;;;;4257930;27;20369;-71
2021/11/12 00:50:03;;;;;;;;;;;13.40;70.40;;;;;;4249365;27;19972;-71
2021/11/12 00:52:12;;;;;;;;;;;13.40;70.40;;;;;;4258779;27;19923;-71
2021/11/12 00:54:17;;;;;;;;;;;13.40;70.40;;;;;;4248064;27;19988;-72
2021/11/12 00:56:22;;;;;;;;;;;13.40;70.40;;;;;;4249144;27;19919;-71
2021/11/12 00:58:25;;;;;;;;;;;13.40;70.40;;;;;;4261394;27;19926;-71
2021/11/12 01:00:27;;;;;;;;;;;13.40;70.90;;;;;;4263422;27;20307;-72
2021/11/12 01:02:32;;;;;;;;;;;13.40;70.40;;;;;;4253193;27;20379;-70
2021/11/12 01:04:35;;;;;;;;;;;13.40;70.40;;;;;;4264608;27;19918;-72
2021/11/12 01:06:39;;;;;;;;;;;13.40;70.30;;;;;;4256026;27;20307;-71
2021/11/12 01:08:42;;;;;;;;;;;13.40;70.40;;;;;;4260631;27;19987;-71
2021/11/12 01:10:45;;;;;;;;;;;13.40;70.40;;;;;;4259153;27;19926;-71
2021/11/12 01:12:48;;;;;;;;;;;13.40;70.30;;;;;;4251118;27;20226;-71
2021/11/12 01:14:51;;;;;;;;;;;13.30;70.30;;;;;;4248026;27;19926;-71
2021/11/12 01:16:54;;;;;;;;;;;13.40;70.40;;;;;;4255516;27;19918;-71
2021/11/12 01:18:59;;;;;;;;;;;13.40;70.30;;;;;;4251999;27;19927;-71
2021/11/12 01:21:02;;;;;;;;;;;13.40;70.30;;;;;;4248504;27;19956;-72
2021/11/12 01:23:05;;;;;;;;;;;13.40;70.30;;;;;;4259635;27;19919;-71
2021/11/12 01:25:12;;;;;;;;;;;13.40;70.30;;;;;;4250293;27;19927;-72
2021/11/12 01:27:15;;;;;;;;;;;13.40;70.30;;;;;;4257454;27;19915;-71
2021/11/12 01:29:18;;;;;;;;;;;13.30;70.20;;;;;;4254348;27;19927;-71
2021/11/12 01:31:27;;;;;;;;;;;13.30;70.20;;;;;;4249509;27;19956;-71
2021/11/12 01:33:30;;;;;;;;;;;13.30;70.30;;;;;;4252674;27;20383;-71
2021/11/12 01:35:34;;;;;;;;;;;13.30;70.30;;;;;;4264196;27;19983;-71
2021/11/12 01:37:38;;;;;;;;;;;13.30;70.30;;;;;;4252982;27;19935;-71
2021/11/12 01:39:41;;;;;;;;;;;13.30;70.30;;;;;;4260060;27;19926;-72
2021/11/12 01:41:50;;;;;;;;;;;13.30;70.30;;;;;;4263220;27;19922;-71
2021/11/12 01:43:54;;;;;;;;;;;13.30;70.30;;;;;;4232169;27;20454;-71
2021/11/12 01:46:11;;;;;;;;;;;13.30;70.30;;;;;;4265987;27;19919;-72
2021/11/12 01:50:37;;;;;;;;;;;13.30;70.30;;;;;;4246771;27;19942;-71
2021/11/12 01:52:46;;;;;;;;;;;13.30;70.30;;;;;;4251183;27;20379;-72
2021/11/12 01:55:00;;;;;;;;;;;13.30;70.30;;;;;;4254709;27;19919;-71
2021/11/12 01:59:15;;;;;;;;;;;13.30;70.30;;;;;;4260026;27;19927;-71
2021/11/12 02:01:18;;;;;;;;;;;13.30;70.40;;;;;;4246745;27;20387;-70
2021/11/12 02:03:21;;;;;;;;;;;13.30;70.30;;;;;;4252304;27;19976;-71
2021/11/12 02:05:24;;;;;;;;;;;13.30;70.30;;;;;;4252310;27;19972;-71
2021/11/12 02:07:29;;;;;;;;;;;13.30;70.30;;;;;;4249128;27;19927;-72
2021/11/12 02:09:31;;;;;;;;;;;13.20;70.30;;;;;;4265601;27;19940;-71
2021/11/12 02:11:34;;;;;;;;;;;13.30;70.30;;;;;;4252329;27;19925;-71
2021/11/12 02:13:37;;;;;;;;;;;13.30;70.30;;;;;;4254908;27;19978;-71
2021/11/12 02:15:42;;;;;;;;;;;13.30;70.30;;;;;;4252791;27;19926;-71
2021/11/12 02:17:53;;;;;;;;;;;13.30;70.30;;;;;;4246859;27;19919;-71
2021/11/12 02:20:03;;;;;;;;;;;13.30;70.30;;;;;;4257764;27;19927;-71
2021/11/12 02:22:09;;;;;;;;;;;13.20;70.20;;;;;;4246190;27;19919;-71
2021/11/12 02:24:13;;;;;;;;;;;13.20;70.20;;;;;;4254266;27;20416;-71
2021/11/12 02:26:20;;;;;;;;;;;13.30;70.30;;;;;;4250783;27;19931;-71
2021/11/12 02:28:25;;;;;;;;;;;13.20;70.20;;;;;;4247473;27;19926;-71
2021/11/12 02:30:30;;;;;;;;;;;13.20;70.30;;;;;;4257882;27;19972;-71
2021/11/12 02:32:33;;;;;;;;;;;13.20;70.20;;;;;;4246242;27;19919;-72
2021/11/12 02:34:36;;;;;;;;;;;13.20;70.20;;;;;;4254734;27;19972;-71
2021/11/12 02:36:39;;;;;;;;;;;13.20;70.20;;;;;;4250888;27;19923;-72
2021/11/12 02:38:45;;;;;;;;;;;13.20;70.30;;;;;;4249498;27;20321;-70
2021/11/12 02:40:48;;;;;;;;;;;13.20;70.30;;;;;;4251446;27;19934;-71
2021/11/12 02:42:51;;;;;;;;;;;13.20;70.20;;;;;;4263177;27;19918;-71
2021/11/12 02:44:55;;;;;;;;;;;13.20;70.20;;;;;;4260837;27;19918;-71
2021/11/12 02:46:57;;;;;;;;;;;13.20;70.20;;;;;;4250901;27;19923;-71
2021/11/12 02:49:00;;;;;;;;;;;13.30;70.20;;;;;;4247251;27;19980;-71
2021/11/12 02:51:04;;;;;;;;;;;13.20;70.20;;;;;;4258656;27;19984;-71
2021/11/12 02:53:13;;;;;;;;;;;13.20;70.20;;;;;;4247483;28;19929;-71
2021/11/12 02:55:17;;;;;;;;;;;13.20;70.20;;;;;;4254707;27;19919;-71
2021/11/12 02:57:22;;;;;;;;;;;13.20;70.20;;;;;;4250388;27;20351;-71
2021/11/12 02:59:25;;;;;;;;;;;13.20;70.10;;;;;;4247170;27;19927;-71
2021/11/12 03:01:29;;;;;;;;;;;13.20;70.20;;;;;;4257503;27;19919;-72
2021/11/12 03:03:32;;;;;;;;;;;13.20;70.10;;;;;;4248117;28;20199;-72
2021/11/12 03:05:36;;;;;;;;;;;13.10;70.10;;;;;;4254225;27;20306;-72
2021/11/12 03:07:39;;;;;;;;;;;13.10;70.20;;;;;;4249977;27;20272;-71
2021/11/12 03:09:42;;;;;;;;;;;13.10;70.10;;;;;;4247145;27;19919;-71
2021/11/12 03:11:46;;;;;;;;;;;13.10;70.00;;;;;;4257178;27;19976;-71
2021/11/12 03:13:49;;;;;;;;;;;13.20;70.10;;;;;;4246100;27;19919;-71
2021/11/12 03:15:52;;;;;;;;;;;13.10;70.00;;;;;;4256640;27;19925;-71
2021/11/12 03:17:58;;;;;;;;;;;13.10;70.00;;;;;;4253904;27;19930;-70
2021/11/12 03:20:01;;;;;;;;;;;13.10;70.00;;;;;;4250643;27;19920;-71
2021/11/12 03:22:07;;;;;;;;;;;13.10;70.00;;;;;;4242163;27;19920;-71
2021/11/12 03:24:33;;;;;;;;;;;13.10;70.00;;;;;;4249325;27;19919;-71
2021/11/12 03:26:43;;;;;;;;;;;13.10;70.00;;;;;;4259948;27;19919;-71
2021/11/12 04:01:48;;;;;;;;;;;13.00;69.80;;;;;;4186844;27;19921;-71
2021/11/12 04:06:32;;;;;;;;;;;13.00;69.80;;;;;;4265094;27;19919;-71
2021/11/12 04:18:10;;;;;;;;;;;12.90;69.80;;;;;;4255106;27;19980;-71
2021/11/12 05:26:09;;;;;;;;;;;12.90;69.60;;;;;;4255435;27;19926;-71
2021/11/12 05:44:19;;;;;;;;;;;12.80;69.50;;;;;;4264005;27;19919;-71
2021/11/12 05:51:11;;;;;;;;;;;12.80;69.40;;;;;;4255056;27;19988;-71
2021/11/12 05:55:36;;;;;;;;;;;12.80;69.40;;;;;;4248699;27;19923;-71
2021/11/12 05:57:39;;;;;;;;;;;12.90;69.50;;;;;;4256793;27;19923;-71
2021/11/12 05:59:42;;;;;;;;;;;12.90;69.40;;;;;;4246789;27;19979;-71
2021/11/12 06:01:46;;;;;;;;;;;12.80;69.40;;;;;;4257179;27;19996;-71
2021/11/12 06:03:49;;;;;;;;;;;12.80;69.40;;;;;;4247835;27;19969;-71
2021/11/12 06:05:52;;;;;;;;;;;12.80;69.30;;;;;;4248283;27;20064;-70
2021/11/12 06:07:54;;;;;;;;;;;12.80;69.40;;;;;;4257568;27;20347;-71
2021/11/12 06:09:57;;;;;;;;;;;12.90;69.40;;;;;;4246279;27;19927;-71
2021/11/12 06:12:01;;;;;;;;;;;12.80;69.30;;;;;;4256462;27;19919;-71
2021/11/12 06:14:04;;;;;;;;;;;12.80;69.30;;;;;;4248937;27;19919;-70
2021/11/12 06:16:07;;;;;;;;;;;12.80;69.30;;;;;;4249585;27;19923;-71
2021/11/12 06:18:11;;;;;;;;;;;12.80;69.30;;;;;;4247382;27;19920;-71
2021/11/12 06:20:16;;;;;;;;;;;12.80;69.20;;;;;;4246818;27;19923;-71
2021/11/12 06:22:19;;;;;;;;;;;12.80;69.30;;;;;;4256564;27;20368;-71
2021/11/12 06:24:21;;;;;;;;;;;12.80;69.30;;;;;;4249647;27;19930;-71
2021/11/12 06:26:27;;;;;;;;;;;12.80;69.20;;;;;;4249178;27;19964;-71
2021/11/12 06:28:31;;;;;;;;;;;12.80;69.20;;;;;;4256248;27;19923;-71
2021/11/12 06:30:34;;;;;;;;;;;12.80;69.20;;;;;;4269976;27;19919;-71
2021/11/12 06:32:37;;;;;;;;;;;12.80;69.20;;;;;;4257265;27;19919;-71
2021/11/12 06:34:40;;;;;;;;;;;12.80;69.20;;;;;;4261237;27;20423;-71
2021/11/12 06:36:42;;;;;;;;;;;12.80;69.20;;;;;;4260538;27;19934;-71
2021/11/12 06:38:46;;;;;;;;;;;12.80;69.20;;;;;;4239777;27;20428;-71
2021/11/12 06:40:50;;;;;;;;;;;12.80;69.20;;;;;;4245947;27;19931;-71
2021/11/12 06:51:51;;;;;;;;;;;12.70;69.10;;;;;;4250260;27;20364;-71
2021/11/12 06:53:57;;;;;;;;;;;12.70;69.20;;;;;;4261328;27;20358;-71
2021/11/12 06:56:02;;;;;;;;;;;12.80;69.20;;;;;;4249497;27;19923;-71
2021/11/12 06:58:05;;;;;;;;;;;12.70;69.10;;;;;;4257401;27;20379;-71
2021/11/12 07:00:11;;;;;;;;;;;12.70;69.10;;;;;;4255952;27;20443;-71
2021/11/12 07:02:16;;;;;;;;;;;12.70;69.20;;;;;;4250740;27;19927;-70
2021/11/12 07:04:19;;;;;;;;;;;12.70;69.10;;;;;;4255047;27;19976;-71
2021/11/12 07:06:23;;;;;;;;;;;12.80;69.10;;;;;;4266477;27;19925;-71
2021/11/12 07:08:25;;;;;;;;;;;12.80;69.10;;;;;;4262253;27;19923;-71
2021/11/12 07:10:28;;;;;;;;;;;12.70;69.10;;;;;;4256222;27;20299;-71
2021/11/12 07:12:31;;;;;;;;;;;12.70;69.10;;;;;;4235434;27;19969;-71
2021/11/12 07:14:35;;;;;;;;;;;12.80;69.10;;;;;;4263154;27;19979;-72
2021/11/12 07:16:39;;;;;;;;;;;12.70;69.10;;;;;;4249556;27;19920;-71
2021/11/12 07:18:44;;;;;;;;;;;12.70;69.00;;;;;;4254619;27;19919;-71
2021/11/12 07:20:47;;;;;;;;;;;12.70;69.10;;;;;;4255939;27;19919;-71
2021/11/12 07:22:50;;;;;;;;;;;12.70;69.10;;;;;;4250529;27;20356;-71
2021/11/12 07:24:53;;;;;;;;;;;12.70;69.10;;;;;;4263911;27;19919;-71
2021/11/12 07:26:56;;;;;;;;;;;12.70;69.00;;;;;;4249307;27;19943;-71
2021/11/12 07:28:59;;;;;;;;;;;12.70;69.00;;;;;;4254272;27;20430;-71
2021/11/12 07:31:19;;;;;;;;;;;12.70;69.10;;;;;;4254524;27;19920;-71
2021/11/12 07:33:23;;;;;;;;;;;12.70;69.00;;;;;;4250589;27;19923;-71
2021/11/12 07:35:33;;;;;;;;;;;12.70;69.00;;;;;;4261037;27;19927;-71
2021/11/12 07:37:36;;;;;;;;;;;12.70;69.00;;;;;;4249044;27;19927;-73
2021/11/12 07:44:12;;;;;;;;;;;12.70;69.00;;;;;;4263552;27;19971;-71
2021/11/12 07:48:36;;;;;;;;;;;12.70;69.00;;;;;;4265832;27;19926;-71
2021/11/12 07:50:40;;;;;;;;;;;12.70;69.00;;;;;;4255622;27;19923;-71
2021/11/12 07:52:43;;;;;;;;;;;12.70;69.00;;;;;;4265961;27;19926;-72
2021/11/12 07:54:48;;;;;;;;;;;12.70;68.90;;;;;;4263547;27;19973;-71
2021/11/12 07:56:51;;;;;;;;;;;12.70;69.00;;;;;;4241616;27;20388;-71
2021/11/12 07:58:54;;;;;;;;;;;12.70;69.00;;;;;;4266881;27;19922;-71
2021/11/12 08:00:56;;;;;;;;;;;12.70;68.90;;;;;;4263507;27;19948;-71
2021/11/12 08:02:59;;;;;;;;;;;12.70;69.00;;;;;;4248600;27;19927;-71
2021/11/12 08:05:10;;;;;;;;;;;12.70;69.00;;;;;;4253835;27;20316;-70
2021/11/12 08:07:14;;;;;;;;;;;12.70;69.10;;;;;;4256527;27;19927;-71
2021/11/12 08:09:20;;;;;;;;;;;12.60;68.90;;;;;;4248821;27;20305;-71
2021/11/12 08:11:45;;;;;;;;;;;12.70;69.10;;;;;;4262263;27;20401;-71
2021/11/12 08:21:08;;;;;;;;;;;12.60;69.00;;;;;;4215264;27;19926;-72
2021/11/12 08:23:31;;;;;;;;;;;12.60;69.10;;;;;;4263549;27;20450;-71
2021/11/12 08:25:49;;;;;;;;;;;12.60;69.10;;;;;;4262911;27;19919;-71
2021/11/12 08:28:02;;;;;;;;;;;12.60;69.10;;;;;;4257688;27;19915;-71
2021/11/12 08:30:20;;;;;;;;;;;12.60;69.10;;;;;;4265076;27;20253;-72
2021/11/12 08:34:32;;;;;;;;;;;12.60;69.00;;;;;;4248131;27;19926;-71
2021/11/12 08:36:47;;;;;;;;;;;12.60;69.10;;;;;;4256806;27;19919;-72
2021/11/12 08:41:15;;;;;;;;;;;12.60;69.00;;;;;;4255576;27;19919;-72
2021/11/12 08:45:24;;;;;;;;;;;12.70;69.10;;;;;;4264978;27;19922;-71
2021/11/12 08:47:30;;;;;;;;;;;12.60;69.00;;;;;;4252894;27;19919;-71
2021/11/12 08:49:36;;;;;;;;;;;12.70;69.10;;;;;;4248597;27;19919;-71
2021/11/12 08:51:41;;;;;;;;;;;12.60;69.10;;;;;;4252110;27;19926;-71
2021/11/12 08:53:45;;;;;;;;;;;12.60;69.00;;;;;;4256633;27;19963;-71
2021/11/12 08:55:49;;;;;;;;;;;12.60;69.10;;;;;;4248826;27;19939;-71
2021/11/12 08:57:52;;;;;;;;;;;12.60;69.00;;;;;;4249046;27;19923;-71
2021/11/12 08:59:55;;;;;;;;;;;12.70;69.10;;;;;;4264973;27;19919;-71
2021/11/12 09:01:59;;;;;;;;;;;12.60;69.00;;;;;;4261424;27;19919;-70
2021/11/12 09:04:03;;;;;;;;;;;12.60;69.10;;;;;;4256942;27;19972;-71
2021/11/12 09:06:06;;;;;;;;;;;12.70;69.10;;;;;;4267651;27;19915;-71
2021/11/12 09:08:08;;;;;;;;;;;12.70;69.10;;;;;;4254926;27;19926;-72
2021/11/12 09:10:11;;;;;;;;;;;12.70;69.10;;;;;;4261743;27;19961;-72
2021/11/12 09:12:17;;;;;;;;;;;12.60;69.10;;;;;;4251087;27;19919;-71
2021/11/12 09:14:22;;;;;;;;;;;12.70;69.20;;;;;;4257118;27;19920;-70
2021/11/12 09:16:33;;;;;;;;;;;12.70;69.20;;;;;;4248742;27;19926;-70
2021/11/12 09:18:37;;;;;;;;;;;12.70;69.20;;;;;;4253137;27;20248;-70
2021/11/12 09:20:40;;;;;;;;;;;12.70;69.30;;;;;;4266145;27;19927;-70
2021/11/12 09:22:43;;;;;;;;;;;12.70;69.40;;;;;;4261664;27;19976;-69
2021/11/12 09:24:46;;;;;;;;;;;12.70;69.20;;;;;;4258267;27;20348;-70
2021/11/12 09:26:48;;;;;;;;;;;12.70;69.20;;;;;;4246296;27;19926;-70
2021/11/12 09:28:53;;;;;;;;;;;12.70;69.20;;;;;;4251524;27;20381;-69
2021/11/12 09:30:56;;;;;;;;;;;12.70;69.40;;;;;;4247346;27;20283;-69
2021/11/12 09:32:59;;;;;;;;;;;12.70;69.20;;;;;;4252244;27;19919;-69
2021/11/12 09:35:02;;;;;;;;;;;12.80;69.30;;;;;;4255693;27;19969;-71
2021/11/12 09:37:06;;;;;;;;;;;12.80;69.30;;;;;;4250081;27;19919;-70
2021/11/12 09:39:09;;;;;;;;;;;12.80;69.30;;;;;;4259864;27;20280;-69
2021/11/12 09:41:12;;;;;;;;;;;12.80;69.50;;;;;;4229401;27;19978;-72
2021/11/12 09:43:14;;;;;;;;;;;12.80;69.30;;;;;;4250202;27;19915;-70
2021/11/12 09:45:19;;;;;;;;;;;12.90;69.40;;;;;;4266330;27;19926;-66
2021/11/12 09:47:27;;;;;;;;;;;12.90;69.50;;;;;;4264323;27;20412;-70
2021/11/12 09:49:29;;;;;;;;;;;12.90;69.50;;;;;;4252890;27;19926;-70
2021/11/12 09:51:32;;;;;;;;;;;12.90;69.40;;;;;;4261650;27;19943;-69
2021/11/12 09:53:35;;;;;;;;;;;12.90;69.50;;;;;;4268397;27;19918;-69
2021/11/12 09:55:39;;;;;;;;;;;13.00;69.70;;;;;;4264319;27;19921;-69
2021/11/12 09:57:43;;;;;;;;;;;12.90;70.30;;;;;;4268046;27;19919;-69
2021/11/12 09:59:46;;;;;;;;;;;13.00;69.80;;;;;;4263288;27;19921;-69
2021/11/12 10:01:50;;;;;;;;;;;13.00;69.80;;;;;;4251805;27;19919;-68
2021/11/12 10:03:53;;;;;;;;;;;13.00;69.70;;;;;;4263254;27;19956;-69
2021/11/12 10:05:55;;;;;;;;;;;13.10;70.30;;;;;;4262248;27;20119;-69
2021/11/12 10:07:58;;;;;;;;;;;13.00;69.60;;;;;;4266990;27;19948;-69
2021/11/12 10:10:03;;;;;;;;;;;13.00;69.50;;;;;;4235453;27;19949;-68
2021/11/12 10:12:07;;;;;;;;;;;13.10;69.60;;;;;;4264817;27;19915;-68
2021/11/12 10:14:12;;;;;;;;;;;13.10;69.50;;;;;;4261991;27;20255;-68
2021/11/12 10:18:23;;;;;;;;;;;13.10;69.50;;;;;;4270258;27;19915;-69
2021/11/12 10:20:26;;;;;;;;;;;13.10;69.70;;;;;;4256660;27;19948;-69
2021/11/12 10:22:30;;;;;;;;;;;13.10;71.00;;;;;;4254483;27;19919;-72
2021/11/12 10:24:34;;;;;;;;;;;13.20;71.20;;;;;;4233784;27;19923;-68
2021/11/12 10:26:37;;;;;;;;;;;13.20;71.00;;;;;;4263697;27;19922;-70
2021/11/12 10:28:41;;;;;;;;;;;13.40;71.00;;;;;;4270187;27;19915;-66
2021/11/12 10:30:44;;;;;;;;;;;13.40;71.10;;;;;;4266968;27;19919;-67
2021/11/12 10:32:47;;;;;;;;;;;13.40;70.80;;;;;;4252213;27;19919;-70
2021/11/12 10:34:52;;;;;;;;;;;13.50;70.40;;;;;;4254834;27;19916;-68
2021/11/12 10:36:56;;;;;;;;;;;13.60;70.50;;;;;;4264063;27;20131;-65
2021/11/12 10:39:19;;;;;;;;;;;13.60;70.50;;;;;;4259795;27;19951;-68
2021/11/12 10:41:23;;;;;;;;;;;13.70;70.30;;;;;;4264875;27;19915;-71
2021/11/12 10:43:26;;;;;;;;;;;13.70;69.50;;;;;;4261208;27;20210;-65
2021/11/12 10:45:29;;;;;;;;;;;13.80;69.40;;;;;;4256767;27;19915;-73
2021/11/12 10:47:33;;;;;;;;;;;13.80;69.20;;;;;;4262797;27;19929;-74
2021/11/12 10:49:37;;;;;;;;;;;13.90;69.20;;;;;;4252069;27;19965;-66
2021/11/12 10:51:50;;;;;;;;;;;13.90;69.10;;;;;;4253258;27;19930;-70
2021/11/12 10:53:53;;;;;;;;;;;14.00;69.00;;;;;;4269773;27;20386;-69
2021/11/12 10:55:56;;;;;;;;;;;14.00;68.90;;;;;;4261285;27;19934;-70
2021/11/12 10:58:00;;;;;;;;;;;14.00;69.30;;;;;;4270131;27;19915;-68
2021/11/12 11:00:10;;;;;;;;;;;14.10;69.80;;;;;;4265859;27;19927;-68
2021/11/12 11:02:19;;;;;;;;;;;14.10;69.60;;;;;;4265560;27;20167;-68
2021/11/12 11:04:39;;;;;;;;;;;14.20;69.50;;;;;;4270845;27;19915;-70
2021/11/12 11:06:42;;;;;;;;;;;14.20;69.20;;;;;;4265915;27;19919;-69
2021/11/12 11:08:50;;;;;;;;;;;14.30;68.80;;;;;;4271380;27;19915;-71
2021/11/12 11:10:54;;;;;;;;;;;14.30;68.80;;;;;;4253415;27;19920;-74
2021/11/12 11:12:59;;;;;;;;;;;14.30;68.80;;;;;;4265720;27;20111;-74
2021/11/12 11:15:27;;;;;;;;;;;14.40;70.20;;;;;;4266967;27;19937;-72
2021/11/12 11:17:30;;;;;;;;;;;14.40;69.30;;;;;;4257297;27;19916;-71
2021/11/12 11:19:34;;;;;;;;;;;14.40;69.10;;;;;;4264485;27;19915;-67
2021/11/12 11:21:37;;;;;;;;;;;14.40;69.40;;;;;;4264052;27;19972;-68
2021/11/12 11:23:41;;;;;;;;;;;14.40;68.60;;;;;;4263024;27;19915;-73
2021/11/12 11:25:50;;;;;;;;;;;14.40;68.30;;;;;;4260339;27;19923;-72
2021/11/12 11:27:53;;;;;;;;;;;14.40;68.30;;;;;;4264947;27;19918;-67
2021/11/12 11:29:56;;;;;;;;;;;14.30;68.20;;;;;;4271048;27;20124;-68
2021/11/12 11:32:00;;;;;;;;;;;14.40;68.20;;;;;;4268927;27;19926;-70
2021/11/12 11:34:04;;;;;;;;;;;14.30;68.10;;;;;;4264864;27;19934;-66
2021/11/12 11:36:07;;;;;;;;;;;14.30;68.40;;;;;;4261405;27;19923;-72
2021/11/12 11:38:10;;;;;;;;;;;14.30;68.30;;;;;;4270643;27;19926;-65
2021/11/12 11:40:14;;;;;;;;;;;14.30;68.30;;;;;;4258110;27;19915;-71
2021/11/12 11:42:19;;;;;;;;;;;14.30;68.20;;;;;;4260311;27;19923;-67
2021/11/12 11:44:23;;;;;;;;;;;14.30;68.00;;;;;;4261042;27;19922;-72
2021/11/12 11:46:27;;;;;;;;;;;14.40;68.10;;;;;;4265224;27;19922;-69
2021/11/12 11:48:34;;;;;;;;;;;14.40;67.90;;;;;;4260148;27;19943;-69
2021/11/12 11:50:49;;;;;;;;;;;14.50;67.90;;;;;;4264885;27;19923;-69
2021/11/12 11:52:53;;;;;;;;;;;14.50;67.90;;;;;;4271033;27;19915;-68
2021/11/12 11:54:56;;;;;;;;;;;14.50;67.90;;;;;;4268096;27;19964;-71
2021/11/12 11:57:12;;;;;;;;;;;14.50;67.90;;;;;;4265871;27;19947;-72
2021/11/12 11:59:18;;;;;;;;;;;14.50;67.80;;;;;;4256247;27;19930;-65
2021/11/12 12:01:29;;;;;;;;;;;14.50;68.00;;;;;;4265499;27;20367;-65
2021/11/12 12:03:33;;;;;;;;;;;14.50;67.80;;;;;;4256237;27;19919;-70
2021/11/12 12:05:54;;;;;;;;;;;14.60;67.70;;;;;;4249658;27;19944;-67
2021/11/12 12:07:59;;;;;;;;;;;14.60;67.60;;;;;;4272121;27;19923;-70
2021/11/12 12:10:21;;;;;;;;;;;14.70;67.40;;;;;;4263640;27;19915;-71
2021/11/12 12:12:42;;;;;;;;;;;14.70;67.40;;;;;;4273695;27;20197;-67
2021/11/12 12:14:46;;;;;;;;;;;14.70;67.50;;;;;;4268759;27;20014;-71
2021/11/12 12:16:50;;;;;;;;;;;14.70;67.50;;;;;;4262110;27;20023;-70
2021/11/12 12:18:54;;;;;;;;;;;14.70;67.70;;;;;;4264189;27;19954;-69
2021/11/12 12:21:33;;;;;;;;;;;14.80;67.70;;;;;;4236986;27;19920;-71
2021/11/12 12:36:34;;;;;;;;;;;14.70;67.90;;;;;;4257215;27;20196;-66
2021/11/12 12:41:48;;;;;;;;;;;14.70;68.00;;;;;;4255463;27;20245;-66
2021/11/12 13:22:32;;;;;;;;;;;14.70;70.60;;;;;;4255990;27;19928;-67
2021/11/12 13:24:37;;;;;;;;;;;14.70;70.50;;;;;;4252207;27;19973;-71
2021/11/12 13:26:40;;;;;;;;;;;14.80;76.50;;;;;;4258990;27;20606;-68
2021/11/12 13:28:47;;;;;;;;;;;14.80;75.60;;;;;;4254573;27;20120;-66
2021/11/12 13:30:52;;;;;;;;;;;14.90;75.20;;;;;;4258642;27;20099;-67
2021/11/12 13:32:55;;;;;;;;;;;15.00;74.80;;;;;;4261494;27;19923;-67
2021/11/12 13:34:58;;;;;;;;;;;15.10;73.70;;;;;;4249385;27;19915;-67
2021/11/12 13:37:00;;;;;;;;;;;15.20;72.80;;;;;;4262705;27;19988;-67
2021/11/12 13:39:06;;;;;;;;;;;15.20;72.70;;;;;;4269072;27;19927;-68
2021/11/12 13:41:10;;;;;;;;;;;15.30;72.30;;;;;;4263118;27;19926;-67
2021/11/12 13:43:22;;;;;;;;;;;15.40;71.90;;;;;;4262557;27;19930;-65
2021/11/12 13:45:25;;;;;;;;;;;15.40;71.70;;;;;;4247787;27;19953;-66
2021/11/12 13:47:28;;;;;;;;;;;15.50;71.40;;;;;;4268025;27;19921;-69
2021/11/12 13:49:34;;;;;;;;;;;15.60;70.90;;;;;;4255467;27;19927;-71
2021/11/12 13:51:38;;;;;;;;;;;15.60;70.80;;;;;;4258404;27;19921;-69
2021/11/12 13:53:40;;;;;;;;;;;15.70;70.60;;;;;;4261067;27;19926;-69
2021/11/12 13:55:45;;;;;;;;;;;15.70;70.40;;;;;;4250390;27;19927;-68
2021/11/12 13:57:56;;;;;;;;;;;15.80;70.40;;;;;;4265789;27;19937;-76
2021/11/12 14:00:03;;;;;;;;;;;15.80;70.20;;;;;;4252697;27;19915;-69
2021/11/12 14:02:06;;;;;;;;;;;15.90;70.00;;;;;;4259958;27;20627;-69
2021/11/12 14:04:22;;;;;;;;;;;15.90;70.00;;;;;;4265437;27;19952;-71
2021/11/12 14:06:32;;;;;;;;;;;16.00;70.00;;;;;;4266191;27;20333;-66
2021/11/12 14:08:36;;;;;;;;;;;16.00;69.40;;;;;;4267977;27;19958;-68
2021/11/12 14:10:40;;;;;;;;;;;16.00;69.10;;;;;;4270243;27;19964;-67
2021/11/12 14:12:54;;;;;;;;;;;16.00;69.40;;;;;;4262723;27;19921;-66
2021/11/12 14:15:03;;;;;;;;;;;16.00;69.20;;;;;;4259085;27;19919;-70
2021/11/12 14:17:18;;;;;;;;;;;16.00;69.40;;;;;;4260398;27;19926;-68
2021/11/12 14:21:41;;;;;;;;;;;16.10;69.40;;;;;;4250204;27;19919;-68
2021/11/12 14:24:07;;;;;;;;;;;16.10;69.30;;;;;;4256497;27;19919;-69
2021/11/12 14:26:23;;;;;;;;;;;16.10;69.20;;;;;;4226825;27;19979;-67
2021/11/12 14:28:54;;;;;;;;;;;16.20;69.20;;;;;;4255566;27;19923;-68
2021/11/12 14:35:27;;;;;;;;;;;16.10;69.50;;;;;;4258674;27;20241;-66
2021/11/12 14:37:43;;;;;;;;;;;16.20;70.00;;;;;;4254955;27;19915;-70
2021/11/12 14:39:54;;;;;;;;;;;16.10;71.00;;;;;;4270600;27;19921;-65
2021/11/12 14:49:05;;;;;;;;;;;16.00;72.10;;;;;;4262689;27;19945;-70
2021/11/12 14:51:13;;;;;;;;;;;16.00;72.00;;;;;;4245198;27;19919;-67
2021/11/12 14:55:20;;;;;;;;;;;16.00;71.40;;;;;;4260609;27;19918;-66
2021/11/12 14:57:29;;;;;;;;;;;16.00;71.40;;;;;;4271221;27;20140;-65
2021/11/12 14:59:37;;;;;;;;;;;16.00;71.70;;;;;;4266800;27;20250;-66
2021/11/12 15:01:41;;;;;;;;;;;16.00;71.90;;;;;;4269977;27;19928;-69
2021/11/12 15:03:46;;;;;;;;;;;16.00;72.40;;;;;;4270658;27;19938;-66
2021/11/12 15:05:49;;;;;;;;;;;16.00;72.40;;;;;;4258956;27;19922;-64
2021/11/12 15:08:27;;;;;;;;;;;15.90;72.30;;;;;;4250428;27;19927;-65
2021/11/12 15:10:26;;;;;;;;;;;16.00;73.10;;;;;;4263280;27;19923;-68
2021/11/12 15:12:31;;;;;;;;;;;16.00;73.00;;;;;;4274380;27;19915;-64
2021/11/12 15:15:09;;;;;;;;;;;15.90;73.20;;;;;;4266881;27;19927;-70
2021/11/12 15:17:05;;;;;;;;;;;16.00;73.00;;;;;;4270015;27;20144;-68
2021/11/12 15:19:14;;;;;;;;;;;16.00;72.90;;;;;;4271797;27;19930;-65
2021/11/12 15:23:39;;;;;;;;;;;16.00;73.50;;;;;;4273790;27;20307;-65
2021/11/12 15:26:09;;;;;;;;;;;16.00;73.40;;;;;;4268429;27;20491;-71
2021/11/12 15:30:35;;;;;;;;;;;16.10;73.40;;;;;;4266961;27;19930;-68
2021/11/12 15:32:39;;;;;;;;;;;16.10;73.80;;;;;;4258862;27;19915;-70
2021/11/12 15:35:07;;;;;;;;;;;16.10;73.70;;;;;;4240573;27;20159;-71
2021/11/12 15:44:26;;;;;;;;;;;16.30;73.70;;;;;;4266784;27;20366;-67
2021/11/12 15:46:39;;;;;;;;;;;16.20;74.40;;;;;;4270730;27;20100;-67
2021/11/12 15:48:44;;;;;;;;;;;16.20;74.30;;;;;;4253494;27;19916;-66
2021/11/12 15:53:14;;;;;;;;;;;16.20;74.40;;;;;;4257841;27;19916;-67
2021/11/12 16:13:14;;;;;;;;;;;16.10;75.30;;;;;;4271219;27;19946;-68
2021/11/12 16:15:19;;;;;;;;;;;16.10;75.40;;;;;;4274644;27;19922;-70
2021/11/12 16:19:35;;;;;;;;;;;16.10;75.20;;;;;;4274800;27;19919;-68
2021/11/12 16:26:20;;;;;;;;;;;16.10;75.20;;;;;;4272220;27;19915;-72
2021/11/12 16:28:24;;;;;;;;;;;16.10;75.40;;;;;;4258868;27;19926;-70
2021/11/12 16:30:32;;;;;;;;;;;16.10;75.50;;;;;;4269042;27;20975;-70
2021/11/12 16:32:48;;;;;;;;;;;16.10;75.50;;;;;;4262839;27;19915;-69
2021/11/12 16:35:00;;;;;;;;;;;16.10;76.10;;;;;;4269731;27;19998;-69
2021/11/12 16:37:05;;;;;;;;;;;16.10;75.60;;;;;;4265166;27;20371;-67
2021/11/12 16:39:09;;;;;;;;;;;16.20;75.60;;;;;;4265676;27;20213;-71
2021/11/12 16:41:20;;;;;;;;;;;16.20;75.70;;;;;;4256791;27;20319;-70
2021/11/12 16:43:34;;;;;;;;;;;16.20;75.60;;;;;;4269662;27;19930;-73
2021/11/12 16:46:01;;;;;;;;;;;16.30;76.00;;;;;;4273855;27;19919;-74
2021/11/12 16:48:16;;;;;;;;;;;16.30;76.00;;;;;;4238087;27;20383;-66
2021/11/12 16:50:41;;;;;;;;;;;16.30;75.70;;;;;;4264858;27;19927;-69
2021/11/12 17:04:05;;;;;;;;;;;16.10;75.00;;;;;;4268818;27;20203;-67
2021/11/12 17:06:20;;;;;;;;;;;16.10;74.90;;;;;;4253164;27;19927;-66
2021/11/12 17:13:35;;;;;;;;;;;16.10;74.40;;;;;;4265784;27;19923;-70
2021/11/12 17:47:35;;;;;;;;;;;16.10;74.00;;;;;;4271694;27;20137;-70
2021/11/12 17:52:05;;;;;;;;;;;16.10;74.20;;;;;;4256158;27;20141;-68
2021/11/12 18:01:48;;;;;;;;;;;16.10;74.40;;;;;;4208877;28;19938;-72
2021/11/12 18:06:17;;;;;;;;;;;16.00;74.30;;;;;;4268280;27;19977;-67
2021/11/12 21:46:38;;;;;;;;;;;16.10;74.90;;;;;;4223341;27;20162;-69
2021/11/12 21:48:43;;;;;;;;;;;16.00;75.00;;;;;;4258218;27;20308;-68
2021/11/12 21:50:51;;;;;;;;;;;16.00;74.90;;;;;;4246828;27;20481;-70
2021/11/12 21:52:53;;;;;;;;;;;16.10;74.90;;;;;;4250767;27;19930;-71
2021/11/12 21:54:56;;;;;;;;;;;16.00;75.00;;;;;;4257703;27;19926;-69